Russell, North Dakota
Current Conditions -  °F | °C
As of 3:58 AM on Wednesday 22 Oct 2014 (Local Time) from KMIB Reporting Station
Clear Clear  
Wind Chill: 58°   Ceiling: Unl
Heat Index: 58°   Visibility: 10mi
Dew Point: 48°   Wind: 12mph
Humidity: 70%   Direction: 230°SW
Pressure: 29.62"   Gusts: NA
Location:  48.6879°N, 101.011°W
Report Text: KMIB 220858Z AUTO 23010KT 10SM CLR 14/09 A2962 RMK AO2 DZE0756 SLP032 60000 T01420087 50017 $
Loading
Personal Weather Stations






























Interactive Weather Map New forecast layout! Learn more

10-Day Weather Forecast

Advertisements
Track Severe Weather on mobile